Time;durP1;ratioP1;P1;durP2;ratioP2;P2;SDS_P1;SDS_P2;PMS_P1;PMS_P2;Temp;Humidity;BMP_temperature;BMP_pressure;BME280_temperature;BME280_humidity;BME280_pressure;Samples;Min_cycle;Max_cycle;Signal;HPM_P1;HPM_P2
2023/01/12 00:02:18;;;;;;;2.83;1.80;;;;;;;;;;4962455;28;20812;-76
2023/01/12 00:04:44;;;;;;;3.60;2.00;;;;;;;;;;4956228;28;20055;-75
2023/01/12 00:07:12;;;;;;;3.65;2.17;;;;;;;;;;4964432;28;20057;-72
2023/01/12 00:09:38;;;;;;;3.13;2.08;;;;;;;;;;4965338;28;20097;-80
2023/01/12 00:12:07;;;;;;;3.05;2.00;;;;;;;;;;4957653;28;20043;-70
2023/01/12 00:14:34;;;;;;;3.42;2.30;;;;;;;;;;4956798;28;20051;-68
2023/01/12 00:17:00;;;;;;;6.32;2.33;;;;;;;;;;4961391;28;20059;-67
2023/01/12 00:19:26;;;;;;;5.38;2.38;;;;;;;;;;4958589;28;20073;-70
2023/01/12 00:22:12;;;;;;;6.75;2.30;;;;;;;;;;4954706;28;20043;-68
2023/01/12 00:24:43;;;;;;;3.97;1.98;;;;;;;;;;4955924;28;20054;-70
2023/01/12 00:27:14;;;;;;;4.68;2.55;;;;;;;;;;4955620;28;20498;-69
2023/01/12 00:29:40;;;;;;;3.70;1.90;;;;;;;;;;4959653;28;20101;-68
2023/01/12 00:32:11;;;;;;;2.72;1.80;;;;;;;;;;4961086;28;20398;-74
2023/01/12 00:34:36;;;;;;;2.92;2.10;;;;;;;;;;4961027;28;20052;-66
2023/01/12 00:37:03;;;;;;;3.17;1.77;;;;;;;;;;4961449;28;20059;-73
2023/01/12 00:39:29;;;;;;;3.75;2.05;;;;;;;;;;4961551;28;20043;-68
2023/01/12 00:47:24;;;;;;;;;;;;;;;;;;4959288;28;20712;-74
2023/01/12 00:49:50;;;;;;;4.43;2.00;;;;;;;;;;4956360;28;19926;-76
2023/01/12 00:52:18;;;;;;;3.35;1.85;;;;;;;;;;4962123;28;20105;-66
2023/01/12 00:54:44;;;;;;;3.58;2.10;;;;;;;;;;4958521;28;20055;-67
2023/01/12 00:57:16;;;;;;;4.10;2.00;;;;;;;;;;4962590;28;20758;-69
2023/01/12 00:59:43;;;;;;;4.85;2.00;;;;;;;;;;4957834;28;20101;-71
2023/01/12 01:02:11;;;;;;;3.55;2.30;;;;;;;;;;4957513;28;20710;-66
2023/01/12 01:04:37;;;;;;;5.15;2.10;;;;;;;;;;4960115;28;20055;-70
2023/01/12 01:07:03;;;;;;;3.45;2.28;;;;;;;;;;4955786;28;20496;-68
2023/01/12 01:09:29;;;;;;;3.20;2.38;;;;;;;;;;4953539;28;20051;-69
2023/01/12 01:11:56;;;;;;;3.40;2.30;;;;;;;;;;4958042;28;20532;-75
2023/01/12 01:14:23;;;;;;;3.10;1.95;;;;;;;;;;4959008;28;20525;-69
2023/01/12 01:16:49;;;;;;;3.00;1.88;;;;;;;;;;4956487;28;20050;-70
2023/01/12 01:19:15;;;;;;;3.58;1.83;;;;;;;;;;4954959;28;20735;-75
2023/01/12 01:21:41;;;;;;;4.93;2.08;;;;;;;;;;4963071;28;20047;-69
2023/01/12 01:24:12;;;;;;;3.05;1.80;;;;;;;;;;4960283;28;20421;-68
2023/01/12 01:26:39;;;;;;;4.55;2.05;;;;;;;;;;4962107;28;20077;-70
2023/01/12 01:29:04;;;;;;;6.28;2.20;;;;;;;;;;4956817;28;20171;-71
2023/01/12 01:31:30;;;;;;;3.25;2.10;;;;;;;;;;4955113;28;20054;-74
2023/01/12 01:33:56;;;;;;;4.75;1.98;;;;;;;;;;4964680;28;20058;-74
2023/01/12 01:36:22;;;;;;;3.55;2.10;;;;;;;;;;4952238;28;20063;-69
2023/01/12 01:38:49;;;;;;;3.72;2.22;;;;;;;;;;4957071;28;20524;-69
2023/01/12 01:41:27;;;;;;;6.45;1.98;;;;;;;;;;4958630;28;20050;-67
2023/01/12 01:44:02;;;;;;;3.83;1.90;;;;;;;;;;4965623;28;20051;-74
2023/01/12 01:46:42;;;;;;;3.13;1.88;;;;;;;;;;4956438;28;20075;-70
2023/01/12 01:49:22;;;;;;;3.22;1.95;;;;;;;;;;4956880;28;20082;-69
2023/01/12 01:51:49;;;;;;;13.68;2.20;;;;;;;;;;4959608;28;20089;-71
2023/01/12 01:54:15;;;;;;;3.00;1.95;;;;;;;;;;4961248;28;20078;-70
2023/01/12 01:56:42;;;;;;;2.42;1.63;;;;;;;;;;4957588;28;20373;-75
2023/01/12 01:59:18;;;;;;;3.80;1.70;;;;;;;;;;4958685;28;20484;-68
2023/01/12 02:01:44;;;;;;;4.28;1.80;;;;;;;;;;4959093;28;20057;-68
2023/01/12 02:04:10;;;;;;;2.42;1.85;;;;;;;;;;4958691;28;20425;-75
2023/01/12 02:06:37;;;;;;;5.00;1.90;;;;;;;;;;4958088;28;20051;-68
2023/01/12 02:09:14;;;;;;;3.55;1.90;;;;;;;;;;4956323;28;20405;-70
2023/01/12 02:17:51;;;;;;;5.35;2.05;;;;;;;;;;4959968;28;20071;-75
2023/01/12 02:21:05;;;;;;;4.63;2.40;;;;;;;;;;4921143;28;20047;-68
2023/01/12 02:24:04;;;;;;;4.15;1.95;;;;;;;;;;4879606;29;20131;-73
2023/01/12 02:26:45;;;;;;;2.30;1.70;;;;;;;;;;4886214;29;20041;-79
2023/01/12 02:29:38;;;;;;;4.60;2.30;;;;;;;;;;4885924;29;20052;-74
2023/01/12 02:32:10;;;;;;;4.65;1.90;;;;;;;;;;4880507;29;20052;-72
2023/01/12 02:34:49;;;;;;;4.90;2.33;;;;;;;;;;4882510;29;20048;-73
2023/01/12 02:37:31;;;;;;;5.10;2.00;;;;;;;;;;4885569;29;20232;-72
2023/01/12 02:40:03;;;;;;;3.45;1.80;;;;;;;;;;4886643;29;20139;-69
2023/01/12 02:42:41;;;;;;;3.30;1.60;;;;;;;;;;4884201;29;20138;-67
2023/01/12 02:45:12;;;;;;;6.07;1.92;;;;;;;;;;4881338;29;20053;-69
2023/01/12 02:47:47;;;;;;;2.90;1.63;;;;;;;;;;4882318;29;20728;-66
2023/01/12 02:50:20;;;;;;;2.95;1.60;;;;;;;;;;4886227;29;20095;-71
2023/01/12 02:52:53;;;;;;;4.35;1.73;;;;;;;;;;4887867;29;20145;-67
2023/01/12 02:55:20;;;;;;;2.78;1.50;;;;;;;;;;4961872;28;20055;-66
2023/01/12 02:57:46;;;;;;;2.35;1.60;;;;;;;;;;4962139;28;20046;-66
2023/01/12 03:00:16;;;;;;;3.65;1.50;;;;;;;;;;4954375;28;20050;-74
2023/01/12 03:02:42;;;;;;;5.20;1.50;;;;;;;;;;4964143;28;20122;-68
2023/01/12 03:05:08;;;;;;;3.03;1.38;;;;;;;;;;4964825;28;20058;-70
2023/01/12 03:07:39;;;;;;;3.88;1.45;;;;;;;;;;4963267;28;20390;-70
2023/01/12 03:10:35;;;;;;;4.22;1.70;;;;;;;;;;4966490;28;20051;-72
2023/01/12 03:13:06;;;;;;;3.28;1.30;;;;;;;;;;4944937;28;20160;-74
2023/01/12 03:15:36;;;;;;;2.72;1.60;;;;;;;;;;4961337;28;20097;-67
2023/01/12 03:18:15;;;;;;;3.92;1.65;;;;;;;;;;4961640;28;20050;-68
2023/01/12 03:20:52;;;;;;;5.70;1.55;;;;;;;;;;4957070;28;20059;-67
2023/01/12 03:23:32;;;;;;;2.70;1.48;;;;;;;;;;4962521;28;20128;-67
2023/01/12 03:26:01;;;;;;;6.32;1.30;;;;;;;;;;4956821;28;20604;-69
2023/01/12 03:28:33;;;;;;;3.00;1.40;;;;;;;;;;4967327;28;20039;-69
2023/01/12 03:31:08;;;;;;;4.30;1.13;;;;;;;;;;4964379;28;20055;-67
2023/01/12 03:33:34;;;;;;;2.58;1.20;;;;;;;;;;4955942;28;20279;-70
2023/01/12 03:36:03;;;;;;;1.98;1.10;;;;;;;;;;4963467;28;20070;-66
2023/01/12 03:38:51;;;;;;;2.42;1.02;;;;;;;;;;4963256;28;20057;-73
2023/01/12 03:41:50;;;;;;;1.95;1.00;;;;;;;;;;4958099;28;20055;-73
2023/01/12 03:44:47;;;;;;;1.33;0.93;;;;;;;;;;4962654;28;20055;-68
2023/01/12 03:47:23;;;;;;;3.13;1.00;;;;;;;;;;4942340;28;20063;-73
2023/01/12 03:49:56;;;;;;;3.03;0.75;;;;;;;;;;4936368;29;20039;-71
2023/01/12 03:52:24;;;;;;;3.95;0.93;;;;;;;;;;4939758;29;20055;-77
2023/01/12 03:54:52;;;;;;;3.15;1.08;;;;;;;;;;4938019;28;20131;-68
2023/01/12 03:57:20;;;;;;;2.72;1.20;;;;;;;;;;4937397;28;20095;-76
2023/01/12 03:59:46;;;;;;;3.35;1.13;;;;;;;;;;4937058;28;20050;-69
2023/01/12 04:02:12;;;;;;;6.45;1.63;;;;;;;;;;4942764;28;20059;-74
2023/01/12 04:04:38;;;;;;;3.28;1.50;;;;;;;;;;4943984;28;20047;-74
2023/01/12 04:07:04;;;;;;;2.15;1.35;;;;;;;;;;4942346;28;20040;-66
2023/01/12 04:09:29;;;;;;;3.45;1.40;;;;;;;;;;4945463;28;20059;-76
2023/01/12 04:12:11;;;;;;;4.38;1.40;;;;;;;;;;4942034;28;20119;-66
2023/01/12 04:14:38;;;;;;;3.97;1.45;;;;;;;;;;4932888;28;20059;-67
2023/01/12 04:17:06;;;;;;;2.63;1.30;;;;;;;;;;4943098;29;20074;-73
2023/01/12 04:19:31;;;;;;;3.65;1.40;;;;;;;;;;4943984;28;20039;-79
2023/01/12 04:24:42;;;;;;;3.67;1.45;;;;;;;;;;4955794;28;20047;-72
2023/01/12 04:27:08;;;;;;;3.13;1.70;;;;;;;;;;4963574;28;20370;-73
2023/01/12 04:29:34;;;;;;;5.22;1.40;;;;;;;;;;4952917;28;20133;-74
2023/01/12 04:32:01;;;;;;;6.25;1.90;;;;;;;;;;4959043;28;20241;-67
2023/01/12 04:34:26;;;;;;;4.68;1.40;;;;;;;;;;4960192;28;20074;-70
2023/01/12 04:36:52;;;;;;;2.97;1.77;;;;;;;;;;4957587;28;20270;-68
2023/01/12 04:39:18;;;;;;;3.78;2.00;;;;;;;;;;4965075;28;20047;-73
2023/01/12 04:41:44;;;;;;;5.55;1.60;;;;;;;;;;4960088;28;20073;-71
2023/01/12 04:44:10;;;;;;;8.02;1.58;;;;;;;;;;4965606;28;20047;-69
2023/01/12 04:46:36;;;;;;;10.68;1.77;;;;;;;;;;4956734;28;20084;-80
2023/01/12 04:49:01;;;;;;;2.72;1.50;;;;;;;;;;4965515;28;20047;-69
2023/01/12 04:51:28;;;;;;;5.13;1.70;;;;;;;;;;4955559;28;20055;-67
2023/01/12 04:53:53;;;;;;;2.10;1.27;;;;;;;;;;4952376;28;20062;-70
2023/01/12 04:56:19;;;;;;;4.63;1.60;;;;;;;;;;4960560;28;20050;-69
2023/01/12 04:58:46;;;;;;;3.47;1.63;;;;;;;;;;4956995;28;20047;-69
2023/01/12 05:01:15;;;;;;;4.43;1.50;;;;;;;;;;4953098;28;22206;-67
2023/01/12 05:03:42;;;;;;;3.90;1.60;;;;;;;;;;4955003;28;20055;-68
2023/01/12 05:06:09;;;;;;;4.53;1.40;;;;;;;;;;4957106;28;20120;-74
2023/01/12 05:11:20;;;;;;;4.03;1.25;;;;;;;;;;4952230;28;20054;-67
2023/01/12 05:13:46;;;;;;;4.10;1.27;;;;;;;;;;4961459;28;20146;-67
2023/01/12 05:16:15;;;;;;;3.15;1.05;;;;;;;;;;4958120;28;20049;-69
2023/01/12 05:18:41;;;;;;;2.83;1.00;;;;;;;;;;4956125;28;20055;-69
2023/01/12 05:21:07;;;;;;;5.38;1.00;;;;;;;;;;4955007;28;20039;-70
2023/01/12 05:23:33;;;;;;;3.95;0.90;;;;;;;;;;4955739;28;20070;-69
2023/01/12 05:26:00;;;;;;;5.72;1.08;;;;;;;;;;4963762;28;20051;-68
2023/01/12 05:28:27;;;;;;;4.13;1.45;;;;;;;;;;4958409;28;20137;-78
2023/01/12 05:30:54;;;;;;;4.10;1.05;;;;;;;;;;4955888;28;20059;-71
2023/01/12 05:33:20;;;;;;;2.08;1.10;;;;;;;;;;4956135;28;20066;-74
2023/01/12 05:35:46;;;;;;;3.45;1.13;;;;;;;;;;4958235;28;20112;-73
2023/01/12 05:38:12;;;;;;;2.65;1.15;;;;;;;;;;4953603;28;20508;-67
2023/01/12 05:40:38;;;;;;;2.35;1.30;;;;;;;;;;4966056;28;21019;-66
2023/01/12 05:45:48;;;;;;;;;;;;;;;;;;4960428;28;20043;-76
2023/01/12 05:48:14;;;;;;;3.45;1.08;;;;;;;;;;4961585;28;20755;-72
2023/01/12 05:50:40;;;;;;;3.47;1.50;;;;;;;;;;4962640;28;21915;-76
2023/01/12 05:53:07;;;;;;;3.80;1.10;;;;;;;;;;4957223;28;20077;-71
2023/01/12 05:55:36;;;;;;;3.45;1.00;;;;;;;;;;4956884;28;20208;-76
2023/01/12 05:58:02;;;;;;;3.05;1.15;;;;;;;;;;4962816;28;20524;-67
2023/01/12 06:00:28;;;;;;;4.50;1.10;;;;;;;;;;4959045;28;20577;-72
2023/01/12 06:02:53;;;;;;;3.20;1.33;;;;;;;;;;4956602;28;20051;-71
2023/01/12 06:05:20;;;;;;;3.05;1.20;;;;;;;;;;4953421;28;20089;-68
2023/01/12 06:07:45;;;;;;;6.32;1.55;;;;;;;;;;4955338;28;20057;-67
2023/01/12 06:10:12;;;;;;;3.13;1.45;;;;;;;;;;4955118;28;20039;-70
2023/01/12 06:15:22;;;;;;;5.03;1.48;;;;;;;;;;4957728;28;20101;-69
2023/01/12 06:17:48;;;;;;;7.95;1.42;;;;;;;;;;4954192;28;20039;-67
2023/01/12 06:20:15;;;;;;;7.68;2.78;;;;;;;;;;4961062;28;20381;-71
2023/01/12 06:22:43;;;;;;;7.80;1.58;;;;;;;;;;4956378;28;20043;-66
2023/01/12 06:25:10;;;;;;;6.03;1.27;;;;;;;;;;4957602;28;20122;-68
2023/01/12 06:27:37;;;;;;;7.15;2.10;;;;;;;;;;4951723;28;20051;-68
2023/01/12 06:30:07;;;;;;;5.43;1.55;;;;;;;;;;4954298;28;20051;-70
2023/01/12 06:32:34;;;;;;;7.10;1.42;;;;;;;;;;4957232;28;20050;-69
2023/01/12 06:35:01;;;;;;;5.93;1.52;;;;;;;;;;4958770;28;20051;-65
2023/01/12 06:37:27;;;;;;;5.32;2.13;;;;;;;;;;4957092;28;20047;-63
2023/01/12 06:39:53;;;;;;;3.92;1.63;;;;;;;;;;4952276;28;20051;-65
2023/01/12 06:42:28;;;;;;;5.60;1.30;;;;;;;;;;4955815;28;20046;-68
2023/01/12 06:44:55;;;;;;;6.60;1.40;;;;;;;;;;4962066;28;20468;-71
2023/01/12 06:47:21;;;;;;;3.47;1.10;;;;;;;;;;4960993;28;20097;-69
2023/01/12 06:49:50;;;;;;;3.35;1.23;;;;;;;;;;4954732;28;20473;-65
2023/01/12 06:52:27;;;;;;;7.43;1.25;;;;;;;;;;4951852;28;20126;-70
2023/01/12 06:54:53;;;;;;;6.00;1.58;;;;;;;;;;4959331;28;20059;-66
2023/01/12 06:57:19;;;;;;;3.40;1.13;;;;;;;;;;4957464;28;20158;-67
2023/01/12 06:59:45;;;;;;;6.43;2.42;;;;;;;;;;4959725;28;20047;-66
2023/01/12 07:02:13;;;;;;;8.27;1.50;;;;;;;;;;4960918;28;20058;-64
2023/01/12 07:04:40;;;;;;;7.28;1.80;;;;;;;;;;4952184;28;20421;-64
2023/01/12 07:07:08;;;;;;;5.55;2.00;;;;;;;;;;4953982;28;20102;-65
2023/01/12 07:09:34;;;;;;;3.13;1.20;;;;;;;;;;4957625;28;20061;-63
2023/01/12 07:12:01;;;;;;;10.02;2.15;;;;;;;;;;4950119;28;20424;-68
2023/01/12 07:14:28;;;;;;;17.95;2.25;;;;;;;;;;4957202;28;20062;-64
2023/01/12 07:16:53;;;;;;;6.38;1.50;;;;;;;;;;4954358;28;20046;-64
2023/01/12 07:19:20;;;;;;;5.13;1.48;;;;;;;;;;4955562;28;20055;-65
2023/01/12 07:21:48;;;;;;;7.25;2.03;;;;;;;;;;4949553;28;20043;-62
2023/01/12 07:24:14;;;;;;;21.30;2.10;;;;;;;;;;4962696;28;20050;-66
2023/01/12 07:26:40;;;;;;;5.80;2.15;;;;;;;;;;4951462;28;20560;-64
2023/01/12 07:29:06;;;;;;;7.22;1.90;;;;;;;;;;4949665;28;20059;-69
2023/01/12 07:31:32;;;;;;;14.32;2.38;;;;;;;;;;4959055;28;20034;-63
2023/01/12 07:33:58;;;;;;;17.65;2.53;;;;;;;;;;4954902;28;20054;-64
2023/01/12 07:36:24;;;;;;;9.13;1.73;;;;;;;;;;4960618;28;20043;-76
2023/01/12 07:38:50;;;;;;;15.90;2.67;;;;;;;;;;4954970;28;20043;-74
2023/01/12 07:44:01;;;;;;;10.38;2.20;;;;;;;;;;4960852;28;20053;-72
2023/01/12 07:46:27;;;;;;;10.80;3.42;;;;;;;;;;4963962;28;20051;-69
2023/01/12 07:48:53;;;;;;;14.68;2.50;;;;;;;;;;4966395;28;20488;-73
2023/01/12 07:51:18;;;;;;;11.38;3.72;;;;;;;;;;4961735;28;20059;-72
2023/01/12 07:53:46;;;;;;;16.48;2.50;;;;;;;;;;4962411;28;20470;-71
2023/01/12 07:56:14;;;;;;;8.18;2.58;;;;;;;;;;4962963;28;20047;-68
2023/01/12 07:58:42;;;;;;;13.43;3.08;;;;;;;;;;4961625;28;20143;-67
2023/01/12 08:01:08;;;;;;;12.25;3.00;;;;;;;;;;4970681;28;20043;-67
2023/01/12 08:03:34;;;;;;;17.13;3.17;;;;;;;;;;4969984;28;20066;-69
2023/01/12 08:06:00;;;;;;;9.90;2.22;;;;;;;;;;4959216;28;20055;-67
2023/01/12 08:08:26;;;;;;;10.40;2.65;;;;;;;;;;4961859;28;20409;-68
2023/01/12 08:10:52;;;;;;;10.15;2.15;;;;;;;;;;4953888;28;20059;-68
2023/01/12 08:13:21;;;;;;;15.27;2.90;;;;;;;;;;4964977;28;20067;-70
2023/01/12 08:15:49;;;;;;;16.10;2.40;;;;;;;;;;4960506;28;20039;-68
2023/01/12 08:18:30;;;;;;;15.90;2.55;;;;;;;;;;4957486;28;20248;-77
2023/01/12 08:20:58;;;;;;;14.48;2.65;;;;;;;;;;4959701;28;20460;-68
2023/01/12 08:23:30;;;;;;;13.23;2.67;;;;;;;;;;4962763;28;20050;-65
2023/01/12 08:26:00;;;;;;;17.35;2.88;;;;;;;;;;4960248;28;20059;-75
2023/01/12 08:28:33;;;;;;;13.95;2.92;;;;;;;;;;4965766;28;20046;-68
2023/01/12 08:30:59;;;;;;;12.38;3.10;;;;;;;;;;4956944;28;20539;-68
2023/01/12 08:33:25;;;;;;;15.40;3.17;;;;;;;;;;4952756;28;20046;-68
2023/01/12 08:35:52;;;;;;;19.23;3.00;;;;;;;;;;4950797;28;20212;-69
2023/01/12 08:38:19;;;;;;;17.73;3.13;;;;;;;;;;4953216;28;20555;-69
2023/01/12 08:46:13;;;;;;;15.30;3.35;;;;;;;;;;4957107;28;19922;-68
2023/01/12 08:48:40;;;;;;;10.68;2.47;;;;;;;;;;4953738;28;20055;-73
2023/01/12 08:51:06;;;;;;;17.38;3.45;;;;;;;;;;4958362;28;20302;-74
2023/01/12 08:53:33;;;;;;;9.30;2.70;;;;;;;;;;4959833;28;20051;-69
2023/01/12 08:55:58;;;;;;;22.70;3.55;;;;;;;;;;4960056;28;20401;-71
2023/01/12 08:58:25;;;;;;;14.32;3.15;;;;;;;;;;4958509;28;20043;-67
2023/01/12 09:00:50;;;;;;;14.13;3.05;;;;;;;;;;4954430;28;20299;-70
2023/01/12 09:03:16;;;;;;;12.13;3.05;;;;;;;;;;4957160;28;20034;-74
2023/01/12 09:05:43;;;;;;;15.43;2.70;;;;;;;;;;4955695;28;20043;-69
2023/01/12 09:08:09;;;;;;;16.55;4.13;;;;;;;;;;4951218;28;20497;-69
2023/01/12 09:10:35;;;;;;;10.68;2.60;;;;;;;;;;4955015;28;20049;-71
2023/01/12 09:13:01;;;;;;;14.60;2.65;;;;;;;;;;4955063;28;20047;-70
2023/01/12 09:15:27;;;;;;;8.43;2.45;;;;;;;;;;4964808;28;20454;-70
2023/01/12 09:17:54;;;;;;;8.48;2.55;;;;;;;;;;4954084;28;20051;-65
2023/01/12 09:20:20;;;;;;;8.63;2.80;;;;;;;;;;4945639;28;20051;-71
2023/01/12 09:22:47;;;;;;;14.65;2.47;;;;;;;;;;4950140;28;20050;-70
2023/01/12 09:25:12;;;;;;;10.20;2.85;;;;;;;;;;4951199;28;20287;-69
2023/01/12 09:27:39;;;;;;;10.15;2.67;;;;;;;;;;4952458;28;20512;-70
2023/01/12 09:30:05;;;;;;;12.23;2.90;;;;;;;;;;4963632;28;20054;-69
2023/01/12 09:32:31;;;;;;;14.70;3.30;;;;;;;;;;4962298;28;20042;-70
2023/01/12 09:34:58;;;;;;;14.95;4.00;;;;;;;;;;4957205;28;20055;-67
2023/01/12 09:37:25;;;;;;;12.77;4.63;;;;;;;;;;4957778;28;20058;-74
2023/01/12 09:39:51;;;;;;;14.57;5.93;;;;;;;;;;4960491;28;20043;-68
2023/01/12 09:48:11;;;;;;;13.73;6.25;;;;;;;;;;4954491;28;20050;-74
2023/01/12 09:50:43;;;;;;;15.93;6.15;;;;;;;;;;4957899;28;20158;-65
2023/01/12 09:53:26;;;;;;;16.75;5.75;;;;;;;;;;4954720;28;20429;-66
2023/01/12 09:56:07;;;;;;;9.57;5.30;;;;;;;;;;4957054;28;20509;-67
2023/01/12 09:58:55;;;;;;;8.77;4.15;;;;;;;;;;4956956;28;20051;-69
2023/01/12 10:01:21;;;;;;;12.05;4.70;;;;;;;;;;4960884;28;20097;-69
2023/01/12 10:03:48;;;;;;;8.52;4.32;;;;;;;;;;4954658;28;20046;-68
2023/01/12 10:06:16;;;;;;;11.80;4.28;;;;;;;;;;4955469;28;20054;-69
2023/01/12 10:08:56;;;;;;;15.75;4.57;;;;;;;;;;4957457;28;20070;-68
2023/01/12 10:11:36;;;;;;;6.35;3.28;;;;;;;;;;4951554;28;20663;-67
2023/01/12 10:14:37;;;;;;;10.77;3.50;;;;;;;;;;4956450;28;20062;-73
2023/01/12 10:17:15;;;;;;;9.13;3.25;;;;;;;;;;4952696;28;20531;-71
2023/01/12 10:19:44;;;;;;;8.55;3.35;;;;;;;;;;4954738;28;20051;-69
2023/01/12 10:22:41;;;;;;;18.98;3.30;;;;;;;;;;4947380;28;20167;-71
2023/01/12 10:25:33;;;;;;;5.68;3.55;;;;;;;;;;4954829;28;20054;-72
2023/01/12 10:28:24;;;;;;;6.60;3.30;;;;;;;;;;4953016;28;20054;-69
2023/01/12 10:30:51;;;;;;;10.38;3.85;;;;;;;;;;4949226;28;20457;-75
2023/01/12 10:33:23;;;;;;;7.90;3.97;;;;;;;;;;4956042;28;20047;-68
2023/01/12 10:36:07;;;;;;;10.38;3.88;;;;;;;;;;4946760;28;20050;-70
2023/01/12 10:38:38;;;;;;;9.00;4.20;;;;;;;;;;4951847;28;20137;-68
2023/01/12 10:41:11;;;;;;;11.93;5.13;;;;;;;;;;4955849;28;20047;-75
2023/01/12 10:43:38;;;;;;;10.93;4.65;;;;;;;;;;4951970;28;20269;-69
2023/01/12 10:46:16;;;;;;;12.93;4.88;;;;;;;;;;4950619;28;20047;-75
2023/01/12 10:48:44;;;;;;;10.98;4.70;;;;;;;;;;4953539;28;20067;-72
2023/01/12 10:51:34;;;;;;;10.73;4.78;;;;;;;;;;4952939;28;20227;-74
2023/01/12 10:54:36;;;;;;;10.75;4.43;;;;;;;;;;4963552;28;20046;-67
2023/01/12 10:57:07;;;;;;;9.50;4.47;;;;;;;;;;4957896;28;20047;-73
2023/01/12 10:59:36;;;;;;;10.18;4.68;;;;;;;;;;4962965;28;20050;-74
2023/01/12 11:02:05;;;;;;;9.05;4.70;;;;;;;;;;4957515;28;20442;-68
2023/01/12 11:04:46;;;;;;;7.38;3.63;;;;;;;;;;4956344;28;20068;-75
2023/01/12 11:07:18;;;;;;;9.20;3.22;;;;;;;;;;4947907;28;20394;-76
2023/01/12 11:09:44;;;;;;;6.82;2.63;;;;;;;;;;4962528;28;20413;-72
2023/01/12 11:12:52;;;;;;;7.65;2.40;;;;;;;;;;4963410;28;20043;-73
2023/01/12 11:15:18;;;;;;;6.20;2.30;;;;;;;;;;4957854;28;20460;-76
2023/01/12 11:18:17;;;;;;;4.43;1.90;;;;;;;;;;4957865;28;20668;-76
2023/01/12 11:20:48;;;;;;;9.27;2.20;;;;;;;;;;4960662;28;20862;-67
2023/01/12 11:23:29;;;;;;;4.53;2.22;;;;;;;;;;4960756;28;20047;-77
2023/01/12 11:25:58;;;;;;;5.00;2.10;;;;;;;;;;4963174;28;20043;-73
2023/01/12 11:28:28;;;;;;;5.97;2.03;;;;;;;;;;4962376;28;20519;-68
2023/01/12 11:30:56;;;;;;;7.38;2.60;;;;;;;;;;4963938;28;20134;-69
2023/01/12 11:33:28;;;;;;;8.27;2.10;;;;;;;;;;4954305;28;20058;-67
2023/01/12 11:36:05;;;;;;;14.55;4.47;;;;;;;;;;4953156;28;20126;-68
2023/01/12 11:38:35;;;;;;;7.72;2.85;;;;;;;;;;4956229;28;20062;-69
2023/01/12 11:41:06;;;;;;;5.38;2.50;;;;;;;;;;4958236;28;20503;-67
2023/01/12 11:44:00;;;;;;;9.45;3.58;;;;;;;;;;4953648;28;20179;-66
2023/01/12 11:46:25;;;;;;;12.20;6.20;;;;;;;;;;4953919;28;20111;-68
2023/01/12 11:49:03;;;;;;;12.90;5.05;;;;;;;;;;4959409;28;20121;-72
2023/01/12 11:51:29;;;;;;;7.50;3.95;;;;;;;;;;4966518;28;20413;-73
2023/01/12 11:53:56;;;;;;;19.13;4.20;;;;;;;;;;4955603;28;20138;-75
2023/01/12 11:56:39;;;;;;;15.73;5.60;;;;;;;;;;4958446;28;20101;-76
2023/01/12 11:59:20;;;;;;;13.75;5.25;;;;;;;;;;4955846;28;20488;-72
2023/01/12 12:02:01;;;;;;;13.82;5.90;;;;;;;;;;4954775;28;20077;-73
2023/01/12 12:05:04;;;;;;;8.57;4.40;;;;;;;;;;4959364;28;20061;-67
2023/01/12 12:08:02;;;;;;;10.23;5.28;;;;;;;;;;4948632;28;20050;-74
2023/01/12 12:10:47;;;;;;;11.45;4.90;;;;;;;;;;4950451;28;20109;-70
2023/01/12 12:13:34;;;;;;;8.25;4.65;;;;;;;;;;4954437;28;20082;-78
2023/01/12 12:16:26;;;;;;;10.52;4.80;;;;;;;;;;4960066;28;20039;-73
2023/01/12 12:19:15;;;;;;;12.05;5.03;;;;;;;;;;4956686;28;20162;-72
2023/01/12 12:21:48;;;;;;;9.95;4.50;;;;;;;;;;4937303;28;20043;-73
2023/01/12 12:24:41;;;;;;;14.30;6.20;;;;;;;;;;4958167;28;20492;-70
2023/01/12 12:27:12;;;;;;;9.60;4.55;;;;;;;;;;4955994;28;20050;-76
2023/01/12 12:30:03;;;;;;;7.63;3.38;;;;;;;;;;4962078;28;20050;-69
2023/01/12 12:32:49;;;;;;;8.05;3.30;;;;;;;;;;4959988;28;20055;-74
2023/01/12 12:35:40;;;;;;;10.27;3.30;;;;;;;;;;4945779;29;20169;-66
2023/01/12 12:38:17;;;;;;;10.07;3.78;;;;;;;;;;4964788;28;20078;-74
2023/01/12 12:46:57;;;;;;;5.88;3.10;;;;;;;;;;4960031;28;20098;-73
2023/01/12 12:49:28;;;;;;;9.93;3.95;;;;;;;;;;4954121;28;20059;-71
2023/01/12 12:51:58;;;;;;;7.57;3.13;;;;;;;;;;4952936;28;20392;-71
2023/01/12 12:54:26;;;;;;;9.77;4.03;;;;;;;;;;4947943;28;20510;-69
2023/01/12 12:56:53;;;;;;;9.00;3.58;;;;;;;;;;4955997;28;20058;-69
2023/01/12 12:59:39;;;;;;;8.32;3.08;;;;;;;;;;4959758;28;20514;-68
2023/01/12 13:02:47;;;;;;;7.97;3.00;;;;;;;;;;4955689;28;20515;-70
2023/01/12 13:05:47;;;;;;;6.28;3.25;;;;;;;;;;4961965;28;20117;-71
2023/01/12 13:08:17;;;;;;;8.82;4.20;;;;;;;;;;4956820;28;20061;-70
2023/01/12 13:10:49;;;;;;;13.13;4.80;;;;;;;;;;4952295;28;20064;-77
2023/01/12 13:13:31;;;;;;;9.52;3.45;;;;;;;;;;4959472;28;20050;-69
2023/01/12 13:16:19;;;;;;;7.95;2.95;;;;;;;;;;4978117;28;20058;-78
2023/01/12 13:18:47;;;;;;;9.18;3.05;;;;;;;;;;4956646;28;20042;-71
2023/01/12 13:21:26;;;;;;;13.63;3.97;;;;;;;;;;4960787;28;20059;-75
2023/01/12 13:23:53;;;;;;;14.27;4.20;;;;;;;;;;4960563;28;20231;-69
2023/01/12 13:26:42;;;;;;;7.78;3.65;;;;;;;;;;4967052;28;20051;-68
2023/01/12 13:29:26;;;;;;;10.27;4.32;;;;;;;;;;4965700;28;20194;-67
2023/01/12 13:31:56;;;;;;;14.00;5.10;;;;;;;;;;4958616;28;20406;-68
2023/01/12 13:34:38;;;;;;;8.77;3.50;;;;;;;;;;4956508;28;20042;-69
2023/01/12 13:37:04;;;;;;;10.15;4.13;;;;;;;;;;4956114;28;20422;-68
2023/01/12 13:39:34;;;;;;;10.25;4.43;;;;;;;;;;4955195;28;20554;-68
2023/01/12 13:44:45;;;;;;;10.50;4.30;;;;;;;;;;4960107;28;20051;-68
2023/01/12 13:47:23;;;;;;;9.20;3.22;;;;;;;;;;4960509;28;20097;-75
2023/01/12 13:49:55;;;;;;;8.95;4.15;;;;;;;;;;4960344;28;20075;-68
2023/01/12 13:52:31;;;;;;;9.48;3.67;;;;;;;;;;4951193;28;20129;-72
2023/01/12 13:54:57;;;;;;;11.68;3.53;;;;;;;;;;4957085;28;20047;-71
2023/01/12 13:57:26;;;;;;;7.47;3.92;;;;;;;;;;4953614;28;20106;-73
2023/01/12 14:00:10;;;;;;;6.50;3.10;;;;;;;;;;4951393;28;20046;-70
2023/01/12 14:02:37;;;;;;;;;;;;;;;;;;4958350;28;21645;-76
2023/01/12 14:05:30;;;;;;;6.60;3.08;;;;;;;;;;4961030;28;20299;-67
2023/01/12 14:08:39;;;;;;;6.57;3.10;;;;;;;;;;4957015;28;20057;-70
2023/01/12 14:11:27;;;;;;;8.75;3.47;;;;;;;;;;4903321;29;20116;-75
2023/01/12 14:20:25;;;;;;;7.85;3.22;;;;;;;;;;4901284;29;20040;-69
2023/01/12 14:23:25;;;;;;;7.78;3.08;;;;;;;;;;4903313;29;20122;-71
2023/01/12 14:26:09;;;;;;;6.95;2.95;;;;;;;;;;4904620;29;20064;-73
2023/01/12 14:28:41;;;;;;;10.88;3.10;;;;;;;;;;4907067;29;20090;-70
2023/01/12 14:31:33;;;;;;;6.65;2.40;;;;;;;;;;4907083;29;20048;-69
2023/01/12 14:34:02;;;;;;;6.47;3.30;;;;;;;;;;4899373;29;20048;-70
2023/01/12 14:36:41;;;;;;;8.98;2.33;;;;;;;;;;4908174;29;20056;-69
2023/01/12 14:39:13;;;;;;;8.02;2.72;;;;;;;;;;4904756;29;20044;-66
2023/01/12 14:47:25;;;;;;;7.15;3.80;;;;;;;;;;4919897;28;20057;-73
2023/01/12 14:49:51;;;;;;;8.27;3.20;;;;;;;;;;4958307;28;20046;-76
2023/01/12 14:52:28;;;;;;;10.35;3.30;;;;;;;;;;4957316;28;20420;-67
2023/01/12 14:54:54;;;;;;;12.65;3.72;;;;;;;;;;4960363;28;20051;-67
2023/01/12 14:57:33;;;;;;;20.05;4.10;;;;;;;;;;4961511;28;20093;-75
2023/01/12 15:00:00;;;;;;;12.38;3.15;;;;;;;;;;4958855;28;20087;-68
2023/01/12 15:02:34;;;;;;;7.75;3.05;;;;;;;;;;4959562;28;20047;-67
2023/01/12 15:05:09;;;;;;;7.18;3.33;;;;;;;;;;4958329;28;20058;-69
2023/01/12 15:07:38;;;;;;;10.70;3.85;;;;;;;;;;4958293;28;20047;-67
2023/01/12 15:10:09;;;;;;;10.05;3.42;;;;;;;;;;4963652;28;20050;-70
2023/01/12 15:12:46;;;;;;;7.82;2.80;;;;;;;;;;4959325;28;20050;-70
2023/01/12 15:15:20;;;;;;;7.97;3.03;;;;;;;;;;4954714;28;20338;-71
2023/01/12 15:26:26;;;;;;;9.93;3.05;;;;;;;;;;4960814;28;20050;-79
2023/01/12 15:28:52;;;;;;;8.95;3.35;;;;;;;;;;4960306;28;20055;-66
2023/01/12 15:31:25;;;;;;;8.05;3.28;;;;;;;;;;4960658;28;20052;-69
2023/01/12 15:33:52;;;;;;;14.15;3.13;;;;;;;;;;4967629;28;20065;-72
2023/01/12 15:36:18;;;;;;;8.18;2.67;;;;;;;;;;4969692;28;20051;-76
2023/01/12 15:38:44;;;;;;;8.93;3.10;;;;;;;;;;4965272;28;20054;-68
2023/01/12 15:42:14;;;;;;;7.80;3.25;;;;;;;;;;4968738;28;20046;-68
2023/01/12 15:44:13;;;;;;;10.32;3.35;;;;;;;;;;4963907;28;20114;-72
2023/01/12 15:46:39;;;;;;;8.73;3.75;;;;;;;;;;4959293;28;20043;-76
2023/01/12 15:49:06;;;;;;;15.18;3.92;;;;;;;;;;4959673;28;20066;-75
2023/01/12 15:51:33;;;;;;;8.25;2.92;;;;;;;;;;4957793;28;20036;-68
2023/01/12 15:53:59;;;;;;;9.45;3.45;;;;;;;;;;4961328;28;20485;-76
2023/01/12 15:56:25;;;;;;;10.35;3.13;;;;;;;;;;4966206;28;20331;-74
2023/01/12 15:58:51;;;;;;;9.07;3.17;;;;;;;;;;4957464;28;20064;-68
2023/01/12 16:01:18;;;;;;;10.52;2.75;;;;;;;;;;4960841;28;20047;-73
2023/01/12 16:03:44;;;;;;;9.55;3.30;;;;;;;;;;4958495;28;20081;-72
2023/01/12 16:06:11;;;;;;;8.48;2.85;;;;;;;;;;4958284;28;20131;-67
2023/01/12 16:08:37;;;;;;;9.90;3.03;;;;;;;;;;4960479;28;20043;-69
2023/01/12 16:11:12;;;;;;;9.50;2.50;;;;;;;;;;4961219;28;20056;-83
2023/01/12 16:13:39;;;;;;;7.60;2.88;;;;;;;;;;4957141;28;20055;-71
2023/01/12 16:16:06;;;;;;;8.73;2.67;;;;;;;;;;4965599;28;20055;-67